เซียะเหมิน, Fujian

01:31 PM CST วัน ตุลาคม 25, 2014 (GMT +0800)
Gaoqi | Change Station
CLOSE
Current Station
Airport
Location: Xiamen,
Elevation: 59 ft
Nearby Weather Stations

Elev 59 ft 24.54 °N, 118.14 °E | Updated 31 minutes ago

Clear
ท้องฟ้าแจ่มใส
81 ฟาเรนไฮน์
Feels Like 82 ฟาเรนไฮน์
N
4
ลม ความผันแปร ลม from ทางทิศตะวันออกเฉียงเหนือ

วันนี้
High -- | Low -- ฟาเรนไฮน์
--% Chance of Precip.
Yesterday
High -- | Low -- ฟาเรนไฮน์
Precip. -- นิ้ว
6:10 AM 5:33 PM
พระจันทร์ใหม่, 2% visible
ความดัน 30.04 นิ้ว
ทัศนวิสัย -9999.0 ไมล์
เมฆ
ดัชนีความร้อน 82 ฟาเรนไฮน์
อุณหภูมิที่อากาศอาจจับตัวเป็นหยาดน้ำค้าง 64 ฟาเรนไฮน์
ความชื้น 58%
Rainfall 0.00 นิ้ว
Snow Depth Not available.
UV Not available.
Pollen Not available.
Air Quality Not available.
Flu Activity Not available.
METAR ZSAM 250500Z 05002MPS 350V100 CAVOK 27/18 Q1017 NOSIG

More Conditions Fewer Conditions

ความดัน 30.04 นิ้ว
ทัศนวิสัย -9999.0 ไมล์
เมฆ
ดัชนีความร้อน 82 ฟาเรนไฮน์
อุณหภูมิที่อากาศอาจจับตัวเป็นหยาดน้ำค้าง 64 ฟาเรนไฮน์
ความชื้น 58%
Rainfall 0.00 นิ้ว
Snow Depth Not available.
UV Not available.
Pollen Not available.
Air Quality Not available.
Flu Activity Not available.
METAR ZSAM 250500Z 05002MPS 350V100 CAVOK 27/18 Q1017 NOSIG

More Conditions Fewer Conditions

10-Day Weather Forecast

Almanac

ดาราศาสตร์

Oct. 25, 2014 Rise Set
Actual Time 6:10 AM CST 5:33 PM CST
Civil Twilight 5:47 AM CST 5:56 PM CST
Nautical Twilight 5:20 AM CST 6:22 PM CST
Astronomical Twilight 4:53 AM CST 6:49 PM CST
Moon 7:09 AM CST 6:37 PM CST
Length Of Visible Light 12h 09m
ความยาวของวัน
11h 22m
Tomorrow will be 1m 18s shorter.
พระจันทร์ใหม่, 2% of the Moon is Illuminated
วันนี้
พระจันทร์ใหม่
Oct 30
ไตรมาสแรก
Nov 6
พระจันทร์เต็มดวง
Nov 14
ไตรมาสล่าสุด
Nov 22
New

Yesterday's Extremes

Country Highs Country Lows

Community

WunderPhotos

Upload Photos

1,764,785 photos uploaded!

Nearby

Snow Depth

Not available.

Earthquake Activity

City Distance Mag. Time & Date
No recent earthquake activity has been reported nearby.
Minimum magnitude displayed is 2.5.

Coastal Water Temperatures

สถานที่ อุณหภูมิ
No Stations Reporting

Nearby Weather Stations